createdAt,value
2019-03-12T00:01:27.272Z,17.30
2019-03-12T00:03:56.701Z,19.00
2019-03-12T00:06:26.219Z,21.17
2019-03-12T00:08:55.703Z,24.57
2019-03-12T00:11:25.118Z,29.70
2019-03-12T00:13:54.570Z,31.50
2019-03-12T00:16:24.102Z,36.63
2019-03-12T00:18:53.591Z,34.50
2019-03-12T00:21:23.226Z,40.33
2019-03-12T00:23:52.637Z,38.77
2019-03-12T00:26:22.101Z,29.63
2019-03-12T00:28:51.525Z,26.93
2019-03-12T00:31:20.963Z,32.37
2019-03-12T00:33:50.451Z,22.03
2019-03-12T00:36:19.930Z,20.83
2019-03-12T00:38:49.331Z,18.57
2019-03-12T00:41:20.038Z,20.03
2019-03-12T00:43:49.809Z,17.90
2019-03-12T00:46:19.273Z,14.60
2019-03-12T00:48:48.691Z,21.67
2019-03-12T00:51:18.115Z,15.53
2019-03-12T00:53:48.898Z,22.90
2019-03-12T00:56:18.329Z,23.47
2019-03-12T00:58:47.926Z,22.90
2019-03-12T01:01:17.383Z,19.27
2019-03-12T01:04:00.974Z,17.47
2019-03-12T01:06:30.385Z,12.50
2019-03-12T01:08:59.790Z,17.10
2019-03-12T01:11:29.199Z,16.57
2019-03-12T01:13:58.743Z,22.43
2019-03-12T01:16:28.843Z,20.37
2019-03-12T01:18:58.331Z,19.57
2019-03-12T01:21:27.750Z,16.93
2019-03-12T01:23:57.142Z,18.70
2019-03-12T01:26:39.457Z,23.57
2019-03-12T01:29:08.885Z,20.73
2019-03-12T01:31:38.316Z,15.07
2019-03-12T01:34:07.752Z,24.80
2019-03-12T01:36:37.260Z,21.53
2019-03-12T01:39:07.370Z,13.17
2019-03-12T01:41:36.777Z,23.40
2019-03-12T01:44:06.213Z,20.63
2019-03-12T01:46:35.645Z,19.83
2019-03-12T01:49:05.052Z,18.13
2019-03-12T01:51:34.493Z,20.10
2019-03-12T01:54:04.162Z,20.47
2019-03-12T01:56:33.587Z,24.33
2019-03-12T01:59:03.015Z,19.93
2019-03-12T02:01:32.453Z,20.13
2019-03-12T02:04:02.001Z,23.53
2019-03-12T02:06:31.476Z,20.90
2019-03-12T02:09:00.907Z,23.03
2019-03-12T02:11:30.373Z,20.23
2019-03-12T02:13:59.792Z,17.53
2019-03-12T02:16:29.456Z,19.10
2019-03-12T02:18:58.944Z,16.60
2019-03-12T02:21:28.438Z,19.93
2019-03-12T02:23:57.859Z,15.47
2019-03-12T02:26:27.279Z,20.47
2019-03-12T02:29:16.087Z,19.70
2019-03-12T02:31:58.816Z,21.43
2019-03-12T02:34:28.330Z,21.63
2019-03-12T02:37:10.373Z,26.07
2019-03-12T02:39:39.819Z,19.70
2019-03-12T02:42:12.505Z,24.40
2019-03-12T02:44:40.486Z,23.80
2019-03-12T02:47:09.965Z,25.50
2019-03-12T02:49:39.453Z,24.80
2019-03-12T02:52:08.881Z,20.63
2019-03-12T02:54:38.652Z,16.40
2019-03-12T02:57:08.087Z,20.43
2019-03-12T02:59:37.567Z,18.17
2019-03-12T03:02:06.987Z,27.40
2019-03-12T03:04:36.483Z,23.17
2019-03-12T03:07:07.476Z,20.07
2019-03-12T03:09:38.190Z,20.17
2019-03-12T03:12:07.655Z,18.97
2019-03-12T03:14:37.923Z,17.53
2019-03-12T03:17:20.143Z,18.20
2019-03-12T03:19:49.588Z,17.33
2019-03-12T03:22:19.051Z,17.40
2019-03-12T03:24:48.569Z,19.63
2019-03-12T03:27:18.030Z,24.57
2019-03-12T03:29:47.478Z,21.47
2019-03-12T03:32:16.923Z,19.90
2019-03-12T03:34:46.363Z,26.37
2019-03-12T03:37:28.543Z,22.13
2019-03-12T03:39:57.970Z,18.57
2019-03-12T03:42:27.401Z,22.17
2019-03-12T03:44:56.857Z,22.63
2019-03-12T03:47:26.296Z,24.43
2019-03-12T03:49:55.771Z,20.43
2019-03-12T03:52:25.234Z,25.83
2019-03-12T03:54:54.980Z,31.37
2019-03-12T03:57:24.400Z,23.73
2019-03-12T03:59:53.889Z,23.13
2019-03-12T04:02:23.304Z,24.50
2019-03-12T04:04:52.833Z,20.23
2019-03-12T04:07:22.212Z,19.60
2019-03-12T04:09:52.699Z,28.50
2019-03-12T04:12:35.454Z,16.47
2019-03-12T04:15:07.344Z,21.37
2019-03-12T04:17:36.823Z,16.13
2019-03-12T04:20:08.987Z,19.33
2019-03-12T04:22:38.391Z,21.97
2019-03-12T04:25:20.842Z,20.83
2019-03-12T04:27:50.321Z,17.03
2019-03-12T04:30:20.266Z,19.40
2019-03-12T04:32:49.759Z,19.70
2019-03-12T04:35:22.305Z,17.30
2019-03-12T04:37:51.818Z,18.33
2019-03-12T04:40:21.431Z,24.20
2019-03-12T04:42:50.831Z,25.70
2019-03-12T04:45:20.265Z,21.13
2019-03-12T04:48:02.506Z,20.63
2019-03-12T04:50:31.945Z,14.67
2019-03-12T04:53:01.456Z,15.80
2019-03-12T04:55:32.081Z,22.67
2019-03-12T04:58:01.515Z,17.70
2019-03-12T05:00:50.308Z,21.47
2019-03-12T05:03:19.783Z,11.83
2019-03-12T05:05:49.188Z,15.57
2019-03-12T05:08:18.601Z,18.97
2019-03-12T05:10:48.087Z,16.13
2019-03-12T05:13:17.566Z,17.20
2019-03-12T05:15:46.970Z,17.37
2019-03-12T05:18:16.927Z,20.03
2019-03-12T05:20:46.375Z,19.97
2019-03-12T05:23:15.801Z,26.00
2019-03-12T05:25:45.222Z,14.77
2019-03-12T05:28:14.679Z,17.83
2019-03-12T05:30:44.215Z,15.07
2019-03-12T05:33:13.606Z,21.83
2019-03-12T05:35:43.053Z,18.50
2019-03-12T05:38:12.437Z,17.17
2019-03-12T05:40:41.919Z,21.60
2019-03-12T05:43:11.418Z,17.53
2019-03-12T05:45:41.126Z,13.43
2019-03-12T05:48:10.571Z,14.80
2019-03-12T05:50:39.982Z,16.23
2019-03-12T05:53:11.792Z,16.70
2019-03-12T05:56:02.195Z,17.30
2019-03-12T05:58:50.997Z,20.50
2019-03-12T06:01:20.426Z,13.17
2019-03-12T06:03:49.874Z,17.80
2019-03-12T06:06:19.349Z,16.63
2019-03-12T06:08:48.771Z,14.83
2019-03-12T06:11:18.263Z,17.97
2019-03-12T06:13:47.781Z,14.57
2019-03-12T06:16:17.220Z,15.70
2019-03-12T06:18:46.636Z,18.27
2019-03-12T06:21:16.162Z,17.53
2019-03-12T06:23:45.709Z,13.13
2019-03-12T06:26:15.089Z,13.63
2019-03-12T06:28:45.057Z,14.17
2019-03-12T06:31:16.123Z,22.30
2019-03-12T06:36:34.629Z,18.53
2019-03-12T06:39:07.675Z,17.40
2019-03-12T06:41:38.672Z,12.77
2019-03-12T06:44:09.709Z,16.20
2019-03-12T06:46:40.767Z,15.73
2019-03-12T06:49:11.895Z,14.00
2019-03-12T06:51:42.977Z,19.93
2019-03-12T06:54:13.983Z,16.07
2019-03-12T06:56:45.193Z,14.67
2019-03-12T06:59:16.258Z,16.33
2019-03-12T07:01:47.386Z,13.07
2019-03-12T07:04:18.399Z,13.93
2019-03-12T07:06:49.394Z,17.17
2019-03-12T07:09:21.439Z,15.33
2019-03-12T07:12:08.823Z,16.53
2019-03-12T07:14:40.045Z,16.70
2019-03-12T07:17:30.412Z,18.07
2019-03-12T07:20:01.497Z,21.27
2019-03-12T07:22:32.561Z,17.50
2019-03-12T07:25:03.640Z,17.37
2019-03-12T07:27:34.689Z,16.07
2019-03-12T07:30:08.888Z,15.60
2019-03-12T07:32:39.939Z,15.87
2019-03-12T07:35:10.971Z,20.87
2019-03-12T07:37:42.116Z,18.53
2019-03-12T07:40:13.211Z,16.97
2019-03-12T07:42:44.294Z,12.67
2019-03-12T07:45:15.344Z,12.33
2019-03-12T07:47:46.587Z,16.87
2019-03-12T07:50:17.663Z,17.93
2019-03-12T07:52:48.693Z,15.90
2019-03-12T07:55:39.251Z,14.27
2019-03-12T07:58:10.342Z,13.40
2019-03-12T08:00:41.362Z,15.67
2019-03-12T08:03:12.845Z,12.60
2019-03-12T08:05:43.927Z,21.60
2019-03-12T08:08:17.871Z,13.53
2019-03-12T08:10:48.903Z,15.63
2019-03-12T08:13:20.365Z,16.80
2019-03-12T08:15:51.718Z,19.13
2019-03-12T08:18:22.825Z,19.83
2019-03-12T08:20:53.989Z,16.23
2019-03-12T08:23:25.135Z,16.50
2019-03-12T08:25:56.316Z,14.50
2019-03-12T08:28:27.351Z,13.77
2019-03-12T08:30:58.430Z,14.97
2019-03-12T08:33:35.519Z,12.30
2019-03-12T08:36:06.644Z,15.87
2019-03-12T08:38:37.986Z,12.73
2019-03-12T08:41:09.031Z,14.83
2019-03-12T08:43:40.089Z,15.10
2019-03-12T08:46:11.082Z,11.47
2019-03-12T08:48:42.105Z,15.40
2019-03-12T08:51:13.165Z,12.63
2019-03-12T08:53:56.825Z,15.77
2019-03-12T08:56:27.930Z,13.73
2019-03-12T08:58:59.114Z,10.37
2019-03-12T09:01:30.426Z,15.70
2019-03-12T09:04:01.428Z,10.47
2019-03-12T09:06:34.055Z,11.30
2019-03-12T09:09:05.517Z,11.53
2019-03-12T09:11:36.543Z,16.63
2019-03-12T09:14:07.741Z,10.70
2019-03-12T09:16:38.784Z,13.53
2019-03-12T09:19:10.296Z,10.03
2019-03-12T09:21:41.415Z,13.53
2019-03-12T09:24:12.572Z,11.43
2019-03-12T09:26:43.622Z,10.47
2019-03-12T09:29:16.273Z,11.17
2019-03-12T09:31:47.384Z,11.43
2019-03-12T09:34:18.547Z,16.23
2019-03-12T09:36:49.655Z,13.07
2019-03-12T09:39:20.733Z,11.53
2019-03-12T09:41:52.327Z,12.37
2019-03-12T09:44:23.380Z,8.87
2019-03-12T09:46:54.520Z,12.80
2019-03-12T09:49:28.665Z,9.00
2019-03-12T09:52:12.344Z,10.70
2019-03-12T09:54:43.380Z,12.17
2019-03-12T09:57:14.645Z,11.83
2019-03-12T10:00:16.325Z,13.33
2019-03-12T10:02:39.491Z,11.23
2019-03-12T10:05:10.574Z,13.93
2019-03-12T10:07:41.647Z,17.37
2019-03-12T10:10:12.683Z,11.17
2019-03-12T10:12:45.342Z,12.60
2019-03-12T10:15:16.549Z,8.10
2019-03-12T10:17:47.638Z,8.40
2019-03-12T10:20:18.683Z,14.30
2019-03-12T10:22:49.734Z,8.87
2019-03-12T10:25:20.791Z,11.23
2019-03-12T10:27:51.975Z,12.40
2019-03-12T10:30:23.141Z,9.23
2019-03-12T10:32:54.295Z,9.40
2019-03-12T10:35:25.474Z,16.27
2019-03-12T10:38:05.728Z,9.40
2019-03-12T10:40:37.736Z,6.97
2019-03-12T10:43:08.971Z,9.00
2019-03-12T10:45:40.154Z,9.90
2019-03-12T10:48:13.830Z,10.23
2019-03-12T10:50:43.306Z,11.30
2019-03-12T10:53:12.992Z,14.37
2019-03-12T10:55:42.444Z,11.53
2019-03-12T10:58:12.152Z,12.03
2019-03-12T11:00:42.995Z,12.47
2019-03-12T11:03:12.713Z,11.90
2019-03-12T11:05:46.142Z,10.40
2019-03-12T11:08:13.215Z,14.60
2019-03-12T11:10:42.883Z,10.30
2019-03-12T11:13:14.696Z,10.97
2019-03-12T11:15:43.660Z,11.77
2019-03-12T11:18:13.080Z,13.43
2019-03-12T11:20:42.537Z,12.33
2019-03-12T11:23:11.935Z,10.03
2019-03-12T11:25:41.527Z,10.10
2019-03-12T11:28:11.081Z,9.77
2019-03-12T11:30:40.683Z,9.93
2019-03-12T11:33:10.118Z,10.93
2019-03-12T11:35:39.915Z,10.27
2019-03-12T11:38:09.402Z,12.83
2019-03-12T11:40:38.915Z,13.77
2019-03-12T11:43:08.339Z,10.47
2019-03-12T11:45:38.429Z,10.70
2019-03-12T11:48:08.459Z,11.17
2019-03-12T11:50:37.955Z,15.63
2019-03-12T11:53:07.492Z,5.43
2019-03-12T11:55:37.276Z,9.03
2019-03-12T11:58:06.754Z,9.07
2019-03-12T12:00:37.862Z,11.77
2019-03-12T12:03:08.554Z,11.70
2019-03-12T12:05:38.128Z,12.20
2019-03-12T12:08:07.686Z,8.37
2019-03-12T12:10:37.623Z,8.07
2019-03-12T12:13:07.252Z,9.00
2019-03-12T12:15:39.241Z,12.47
2019-03-12T12:18:15.992Z,9.90
2019-03-12T12:20:49.147Z,12.27
2019-03-12T12:23:18.575Z,12.80
2019-03-12T12:25:49.929Z,8.83
2019-03-12T12:28:38.729Z,8.03
2019-03-12T12:31:08.251Z,7.30
2019-03-12T12:33:37.857Z,10.20
2019-03-12T12:36:07.459Z,9.80
2019-03-12T12:38:37.133Z,9.77
2019-03-12T12:41:06.925Z,8.77
2019-03-12T12:43:36.393Z,8.77
2019-03-12T12:46:05.911Z,7.37
2019-03-12T12:48:35.409Z,6.43
2019-03-12T12:51:04.953Z,7.53
2019-03-12T12:53:34.415Z,6.47
2019-03-12T12:56:04.337Z,8.83
2019-03-12T12:58:33.774Z,6.97
2019-03-12T13:01:03.260Z,7.80
2019-03-12T13:03:34.044Z,8.90
2019-03-12T13:06:03.519Z,9.13
2019-03-12T13:08:33.005Z,11.77
2019-03-12T13:11:02.446Z,12.03
2019-03-12T13:13:32.168Z,9.43
2019-03-12T13:16:01.751Z,7.73
2019-03-12T13:18:32.780Z,10.80
2019-03-12T13:21:02.190Z,8.17
2019-03-12T13:23:31.631Z,7.20
2019-03-12T13:26:01.066Z,8.93
2019-03-12T13:28:30.613Z,8.87
2019-03-12T13:31:00.140Z,8.87
2019-03-12T13:33:31.222Z,6.87
2019-03-12T13:36:00.732Z,9.40
2019-03-12T13:38:44.837Z,7.50
2019-03-12T13:41:03.055Z,6.83
2019-03-12T13:43:32.892Z,9.30
2019-03-12T13:46:02.534Z,9.97
2019-03-12T13:48:31.991Z,6.80
2019-03-12T13:51:01.479Z,11.73
2019-03-12T13:53:31.199Z,6.17
2019-03-12T13:56:00.686Z,6.73
2019-03-12T13:58:32.352Z,7.80
2019-03-12T14:01:01.843Z,11.50
2019-03-12T14:03:31.355Z,12.47
2019-03-12T14:06:00.857Z,6.63
2019-03-12T14:08:30.310Z,8.93
2019-03-12T14:10:59.796Z,8.73
2019-03-12T14:13:29.468Z,8.77
2019-03-12T14:15:58.892Z,8.03
2019-03-12T14:18:28.320Z,7.90
2019-03-12T14:21:03.988Z,8.90
2019-03-12T14:23:36.650Z,8.80
2019-03-12T14:26:06.101Z,8.77
2019-03-12T14:28:35.526Z,9.67
2019-03-12T14:31:05.023Z,15.43
2019-03-12T14:33:34.452Z,7.90
2019-03-12T14:36:03.949Z,10.10
2019-03-12T14:38:33.377Z,7.67
2019-03-12T14:41:04.479Z,8.43
2019-03-12T14:43:35.035Z,7.30
2019-03-12T14:46:04.811Z,7.00
2019-03-12T14:48:36.492Z,7.00
2019-03-12T14:51:09.182Z,6.40
2019-03-12T14:53:40.170Z,9.60
2019-03-12T14:56:11.321Z,10.43
2019-03-12T14:58:40.734Z,6.43
2019-03-12T15:01:10.229Z,7.43
2019-03-12T15:03:44.875Z,8.50
2019-03-12T15:06:14.654Z,10.17
2019-03-12T15:08:44.070Z,8.53
2019-03-12T15:11:13.691Z,6.63
2019-03-12T15:13:43.178Z,7.33
2019-03-12T15:16:12.551Z,6.00
2019-03-12T15:18:42.154Z,7.93
2019-03-12T15:21:11.863Z,8.37
2019-03-12T15:23:41.398Z,7.53
2019-03-12T15:26:10.913Z,7.57
2019-03-12T15:28:40.410Z,7.60
2019-03-12T15:31:09.924Z,6.27
2019-03-12T15:33:39.495Z,4.20
2019-03-12T15:36:09.032Z,10.80
2019-03-12T15:38:38.402Z,9.77
2019-03-12T15:41:07.906Z,7.20
2019-03-12T15:43:37.363Z,6.53
2019-03-12T15:46:07.048Z,7.40
2019-03-12T15:48:36.527Z,6.90
2019-03-12T15:51:25.548Z,7.67
2019-03-12T15:53:54.967Z,6.30
2019-03-12T15:56:24.475Z,7.20
2019-03-12T15:58:55.488Z,7.60
2019-03-12T16:01:25.077Z,10.00
2019-03-12T16:04:07.797Z,7.83
2019-03-12T16:06:38.551Z,8.30
2019-03-12T16:09:07.952Z,7.00
2019-03-12T16:11:37.414Z,7.63
2019-03-12T16:14:06.854Z,6.30
2019-03-12T16:16:36.297Z,6.33
2019-03-12T16:19:05.730Z,9.40
2019-03-12T16:21:35.150Z,5.53
2019-03-12T16:24:04.552Z,5.53
2019-03-12T16:26:34.125Z,6.43
2019-03-12T16:29:22.927Z,5.83
2019-03-12T16:31:52.382Z,6.73
2019-03-12T16:34:21.817Z,5.33
2019-03-12T16:36:51.231Z,5.23
2019-03-12T16:39:20.887Z,5.47
2019-03-12T16:41:50.518Z,6.77
2019-03-12T16:44:20.075Z,5.57
2019-03-12T16:46:49.476Z,6.37
2019-03-12T16:49:18.981Z,6.03
2019-03-12T16:51:48.394Z,4.03
2019-03-12T16:54:17.834Z,5.13
2019-03-12T16:56:47.390Z,8.13
2019-03-12T16:59:16.896Z,4.27
2019-03-12T17:01:46.395Z,4.17
2019-03-12T17:04:15.881Z,7.50
2019-03-12T17:06:46.980Z,5.90
2019-03-12T17:09:16.407Z,7.23
2019-03-12T17:11:46.278Z,4.47
2019-03-12T17:14:15.731Z,4.70
2019-03-12T17:16:45.217Z,3.03
2019-03-12T17:19:14.614Z,6.07
2019-03-12T17:21:44.049Z,4.93
2019-03-12T17:24:13.508Z,4.37
2019-03-12T17:26:42.905Z,6.17
2019-03-12T17:29:14.455Z,5.80
2019-03-12T17:31:43.854Z,6.43
2019-03-12T17:34:13.266Z,4.80
2019-03-12T17:36:42.660Z,6.47
2019-03-12T17:39:12.059Z,4.33
2019-03-12T17:41:41.566Z,7.03
2019-03-12T17:44:11.086Z,3.57
2019-03-12T17:46:40.668Z,5.83
2019-03-12T17:49:12.581Z,7.00
2019-03-12T17:51:41.293Z,6.53
2019-03-12T17:54:13.389Z,5.00
2019-03-12T17:56:42.806Z,7.10
2019-03-12T17:59:12.226Z,6.50
2019-03-12T18:01:41.720Z,8.63
2019-03-12T18:04:11.220Z,4.47
2019-03-12T18:06:40.749Z,7.47
2019-03-12T18:09:11.362Z,6.07
2019-03-12T18:11:40.777Z,8.07
2019-03-12T18:14:10.186Z,7.03
2019-03-12T18:16:41.318Z,7.10
2019-03-12T18:19:10.694Z,6.43
2019-03-12T18:21:40.112Z,5.47
2019-03-12T18:24:09.600Z,6.73
2019-03-12T18:26:39.116Z,7.60
2019-03-12T18:29:08.539Z,8.40
2019-03-12T18:31:37.954Z,8.43
2019-03-12T18:34:07.354Z,5.07
2019-03-12T18:36:38.346Z,4.43
2019-03-12T18:39:20.409Z,6.23
2019-03-12T18:41:49.872Z,5.00
2019-03-12T18:44:19.272Z,4.03
2019-03-12T18:46:48.776Z,7.57
2019-03-12T18:49:18.227Z,5.90
2019-03-12T18:51:47.622Z,5.73
2019-03-12T18:54:17.217Z,6.30
2019-03-12T18:56:46.607Z,5.83
2019-03-12T18:59:16.032Z,5.87
2019-03-12T19:01:45.493Z,5.93
2019-03-12T19:04:15.040Z,6.30
2019-03-12T19:06:44.513Z,5.63
2019-03-12T19:09:28.060Z,6.13
2019-03-12T19:11:57.542Z,4.50
2019-03-12T19:14:26.999Z,6.20
2019-03-12T19:16:56.455Z,6.10
2019-03-12T19:19:25.911Z,5.50
2019-03-12T19:21:55.380Z,7.67
2019-03-12T19:24:24.801Z,5.03
2019-03-12T19:26:54.304Z,7.03
2019-03-12T19:29:23.783Z,4.50
2019-03-12T19:31:54.817Z,6.23
2019-03-12T19:34:25.932Z,6.87
2019-03-12T19:36:55.386Z,8.00
2019-03-12T19:39:24.916Z,6.13
2019-03-12T19:41:54.340Z,8.00
2019-03-12T19:44:23.767Z,5.57
2019-03-12T19:46:53.196Z,5.37
2019-03-12T19:49:22.666Z,4.33
2019-03-12T19:51:52.103Z,5.53
2019-03-12T19:54:21.523Z,8.27
2019-03-12T19:57:10.329Z,8.03
2019-03-12T19:59:39.777Z,9.93
2019-03-12T20:02:15.899Z,8.33
2019-03-12T20:04:47.314Z,5.73
2019-03-12T20:07:11.574Z,7.93
2019-03-12T20:09:43.634Z,7.67
2019-03-12T20:12:28.149Z,7.03
2019-03-12T20:15:00.762Z,6.57
2019-03-12T20:17:35.873Z,6.33
2019-03-12T20:20:08.483Z,7.40
2019-03-12T20:22:41.050Z,6.30
2019-03-12T20:25:13.728Z,7.27
2019-03-12T20:27:46.845Z,5.20
2019-03-12T20:30:37.225Z,7.47
2019-03-12T20:33:09.788Z,5.07
2019-03-12T20:36:00.290Z,6.07
2019-03-12T20:38:44.027Z,7.93
2019-03-12T20:41:34.390Z,7.30
2019-03-12T20:44:07.073Z,8.50
2019-03-12T20:46:57.394Z,6.57
2019-03-12T20:49:43.033Z,4.97
2019-03-12T20:52:26.961Z,5.47
2019-03-12T20:54:59.538Z,7.10
2019-03-12T20:57:32.077Z,10.70
2019-03-12T21:00:04.657Z,5.73
2019-03-12T21:02:37.277Z,4.73
2019-03-12T21:05:09.972Z,7.80
2019-03-12T21:08:00.343Z,7.20
2019-03-12T21:10:44.871Z,7.57
2019-03-12T21:13:17.446Z,3.47
2019-03-12T21:16:01.826Z,2.80
2019-03-12T21:18:34.397Z,1.00
2019-03-12T21:21:06.961Z,2.03
2019-03-12T21:23:39.688Z,2.13
2019-03-12T21:26:12.332Z,3.20
2019-03-12T21:28:45.026Z,2.20
2019-03-12T21:31:15.124Z,2.40
2019-03-12T21:34:04.288Z,2.67
2019-03-12T21:36:33.688Z,2.20
2019-03-12T21:39:04.897Z,2.73
2019-03-12T21:41:34.383Z,2.07
2019-03-12T21:44:03.909Z,0.80
2019-03-12T21:46:33.378Z,2.40
2019-03-12T21:49:02.766Z,3.57
2019-03-12T21:51:32.183Z,1.70
2019-03-12T21:54:16.340Z,4.70
2019-03-12T21:56:45.745Z,3.33
2019-03-12T21:59:15.156Z,2.50
2019-03-12T22:01:44.628Z,3.80
2019-03-12T22:04:15.613Z,4.40
2019-03-12T22:06:45.075Z,2.53
2019-03-12T22:09:14.530Z,4.63
2019-03-12T22:11:44.295Z,5.57
2019-03-12T22:14:13.842Z,5.50
2019-03-12T22:16:44.130Z,4.03
2019-03-12T22:19:13.593Z,4.60
2019-03-12T22:22:04.041Z,6.20
2019-03-12T22:24:33.430Z,5.83
2019-03-12T22:27:22.241Z,5.27
2019-03-12T22:29:51.676Z,8.47
2019-03-12T22:32:21.083Z,7.40
2019-03-12T22:34:50.528Z,7.40
2019-03-12T22:37:19.955Z,7.70
2019-03-12T22:39:49.430Z,9.10
2019-03-12T22:42:38.179Z,7.77
2019-03-12T22:45:09.625Z,8.17
2019-03-12T22:47:39.095Z,9.30
2019-03-12T22:50:14.167Z,7.50
2019-03-12T22:52:43.572Z,8.60
2019-03-12T22:55:25.800Z,8.77
2019-03-12T22:57:55.199Z,12.23
2019-03-12T23:00:26.224Z,10.57
2019-03-12T23:02:55.685Z,10.27
2019-03-12T23:05:27.734Z,8.60
2019-03-12T23:08:16.571Z,10.47
2019-03-12T23:10:46.293Z,11.93
2019-03-12T23:13:35.334Z,10.67
2019-03-12T23:16:17.440Z,10.80
2019-03-12T23:18:46.844Z,11.80
2019-03-12T23:21:29.514Z,12.17
2019-03-12T23:23:59.067Z,11.13
2019-03-12T23:26:28.525Z,10.43
2019-03-12T23:28:57.932Z,10.30
2019-03-12T23:31:40.377Z,12.27
2019-03-12T23:34:09.965Z,9.97
2019-03-12T23:36:39.443Z,11.00
2019-03-12T23:39:28.233Z,11.43
2019-03-12T23:41:57.619Z,11.60
2019-03-12T23:44:46.420Z,10.97
2019-03-12T23:47:15.821Z,12.07
2019-03-12T23:49:45.286Z,11.27
2019-03-12T23:52:14.708Z,13.13
2019-03-12T23:54:44.124Z,15.10
2019-03-12T23:57:13.621Z,10.77
2019-03-12T23:59:43.089Z,11.63
